首页
METAR-TAF:

METAR-TAF

机场 :

Pickle Lake, 安大略省, 加拿大

纬度: 51-27N, 经度: 090-12W, 海拔: 386米

当前天气观测

该预报发布于1小时和14分钟前的10:00 UTC
风速3节,风向北转西北,在西东转东北之间变化
温度 12°C
湿度 94%
气压 1021 hPa
能見度: 14.5公里
阴天层高于4900英尺

METAR: CYPL 011000Z AUTO 34003KT 260V060 9SM OVC049 12/11 A3014 RMK SLP216

时间: 06:14 (11:14 UTC)

预报

该预报发布于3小时和35分钟前的07:39 UTC
预报有效从01日的 08点(UTC)到 01日的 20点(UTC)
风速6节,风向北转西北
能見度: 10公里
多云层高于1500英尺
阴天层高于5000英尺
短暂存在
从 01日的 08点(UTC)到 01日的 16点(UTC)
少量云层高于2000英尺
多云层高于6000英尺
几率 30%
从 01日的 10点(UTC)到 01日的 14点(UTC)
能見度: 8.0公里
多云层高于800英尺
阴天层高于1500英尺
轻雾
从 01日的 1600点(UTC)
风速8节,风向西北
能見度: 10公里
多云层高于3000英尺

TAF: CYPL 010739Z 0108/0120 34006KT P6SM BKN015 OVC050 TEMPO 0108/0116 FEW020 BKN060 PROB30 0110/0114 5SM BR BKN008 OVC015 FM011600 32008KT P6SM BKN030 RMK FCST BASED ON AUTO OBS. NXT FCST BY 011400Z

超过4000个机场的气象观测和天气预报(METAR&TAF报告)。

可查询的气象台以黄色和红色小点在地图上表示。

将鼠标移到小点上方,可查看气象台名称。

然后点击查看天气观测和预报。

如需切换地图:点击带黑十字的绿色按钮放大地图;点击带横线的绿色按钮缩小地图;或者点击绿色箭头查看邻近地区的地图。


METAR-TAF: